createdAt,value
2022-08-03T00:01:48.739Z,28.68
2022-08-03T00:04:38.122Z,28.79
2022-08-03T00:07:27.547Z,28.75
2022-08-03T00:10:17.423Z,28.78
2022-08-03T00:13:07.251Z,28.84
2022-08-03T00:15:57.672Z,28.89
2022-08-03T00:18:47.513Z,28.93
2022-08-03T00:21:37.235Z,29.01
2022-08-03T00:24:27.006Z,29.02
2022-08-03T00:27:19.413Z,29.04
2022-08-03T00:30:09.807Z,29.12
2022-08-03T00:33:00.222Z,29.15
2022-08-03T00:35:51.281Z,29.19
2022-08-03T00:38:41.849Z,29.22
2022-08-03T00:41:31.985Z,29.23
2022-08-03T00:44:22.455Z,29.27
2022-08-03T00:47:12.191Z,29.29
2022-08-03T00:50:02.863Z,29.29
2022-08-03T00:52:58.548Z,29.35
2022-08-03T00:55:48.600Z,29.42
2022-08-03T00:58:38.613Z,29.44
2022-08-03T01:01:29.197Z,29.46
2022-08-03T01:04:22.931Z,29.45
2022-08-03T01:07:40.411Z,29.48
2022-08-03T01:10:33.453Z,29.52
2022-08-03T01:14:00.947Z,29.60
2022-08-03T01:17:01.756Z,29.66
2022-08-03T01:20:07.783Z,29.71
2022-08-03T01:23:05.695Z,29.85
2022-08-03T01:26:40.431Z,29.90
2022-08-03T01:29:47.195Z,30.04
2022-08-03T01:33:01.048Z,30.12
2022-08-03T01:36:11.652Z,30.19
2022-08-03T01:39:06.222Z,30.22
2022-08-03T01:42:02.019Z,30.27
2022-08-03T01:44:53.726Z,30.29
2022-08-03T01:47:44.733Z,30.31
2022-08-03T01:50:35.746Z,30.38
2022-08-03T01:53:25.457Z,30.40
2022-08-03T01:56:15.070Z,30.55
2022-08-03T01:59:05.133Z,30.63
2022-08-03T02:02:28.677Z,30.78
2022-08-03T02:05:10.774Z,30.82
2022-08-03T02:08:04.172Z,30.79
2022-08-03T02:10:55.816Z,30.73
2022-08-03T02:13:47.084Z,30.71
2022-08-03T02:16:37.443Z,30.72
2022-08-03T02:19:32.445Z,30.75
2022-08-03T02:22:26.586Z,30.78
2022-08-03T02:25:19.438Z,30.81
2022-08-03T02:28:14.267Z,30.85
2022-08-03T02:31:10.621Z,30.91
2022-08-03T02:34:04.266Z,30.90
2022-08-03T02:36:55.930Z,31.04
2022-08-03T02:39:46.573Z,31.16
2022-08-03T02:42:37.887Z,31.20
2022-08-03T02:45:28.741Z,31.24
2022-08-03T02:48:24.052Z,31.29
2022-08-03T02:51:13.832Z,31.42
2022-08-03T02:54:05.638Z,31.36
2022-08-03T02:56:56.852Z,31.31
2022-08-03T02:59:48.189Z,31.28
2022-08-03T03:02:39.088Z,31.48
2022-08-03T03:05:53.596Z,31.40
2022-08-03T03:08:44.005Z,31.45
2022-08-03T03:11:37.074Z,31.43
2022-08-03T03:14:33.694Z,31.45
2022-08-03T03:17:24.286Z,31.49
2022-08-03T03:20:14.894Z,31.58
2022-08-03T03:23:04.727Z,31.64
2022-08-03T03:25:57.497Z,31.66
2022-08-03T03:28:47.823Z,31.76
2022-08-03T03:31:38.742Z,31.89
2022-08-03T03:34:32.057Z,31.99
2022-08-03T03:37:21.645Z,32.01
2022-08-03T03:40:12.530Z,31.99
2022-08-03T03:43:02.926Z,31.98
2022-08-03T03:45:55.077Z,31.94
2022-08-03T03:48:44.936Z,31.91
2022-08-03T03:51:34.849Z,31.95
2022-08-03T03:54:25.440Z,31.96
2022-08-03T03:57:18.799Z,31.95
2022-08-03T04:00:09.540Z,31.99
2022-08-03T04:02:59.897Z,31.98
2022-08-03T04:06:07.601Z,31.99
2022-08-03T04:09:15.808Z,31.99
2022-08-03T04:12:07.282Z,31.99
2022-08-03T04:14:59.596Z,31.98
2022-08-03T04:17:51.861Z,31.91
2022-08-03T04:20:42.994Z,31.90
2022-08-03T04:23:36.390Z,31.94
2022-08-03T04:26:28.314Z,32.05
2022-08-03T04:29:18.718Z,32.13
2022-08-03T04:32:09.391Z,32.16
2022-08-03T04:34:59.295Z,32.30
2022-08-03T04:37:52.055Z,32.44
2022-08-03T04:40:44.293Z,32.53
2022-08-03T04:43:35.514Z,32.51
2022-08-03T04:46:29.579Z,32.64
2022-08-03T04:49:22.340Z,32.78
2022-08-03T04:52:12.201Z,32.83
2022-08-03T04:55:02.860Z,32.98
2022-08-03T04:57:52.904Z,33.05
2022-08-03T05:00:43.790Z,33.12
2022-08-03T05:03:34.435Z,33.24
2022-08-03T05:06:25.042Z,33.37
2022-08-03T05:09:45.954Z,33.47
2022-08-03T05:12:28.389Z,33.56
2022-08-03T05:15:22.280Z,33.66
2022-08-03T05:18:14.124Z,33.69
2022-08-03T05:21:05.750Z,33.68
2022-08-03T05:23:56.193Z,33.81
2022-08-03T05:26:46.305Z,33.96
2022-08-03T05:29:36.327Z,34.03
2022-08-03T05:32:26.007Z,34.04
2022-08-03T05:35:55.881Z,33.97
2022-08-03T05:38:28.540Z,34.05
2022-08-03T05:41:20.962Z,34.14
2022-08-03T05:44:14.209Z,34.20
2022-08-03T05:47:04.096Z,34.25
2022-08-03T05:49:53.527Z,34.36
2022-08-03T05:52:44.692Z,34.40
2022-08-03T05:55:34.408Z,34.46
2022-08-03T05:58:24.286Z,34.54
2022-08-03T06:01:26.099Z,34.63
2022-08-03T06:04:18.655Z,34.72
2022-08-03T06:07:09.112Z,34.84
2022-08-03T06:10:37.354Z,34.93
2022-08-03T06:13:09.401Z,34.98
2022-08-03T06:15:59.410Z,34.99
2022-08-03T06:18:49.470Z,35.10
2022-08-03T06:21:39.929Z,35.07
2022-08-03T06:24:30.848Z,35.13
2022-08-03T06:27:20.932Z,35.17
2022-08-03T06:30:27.969Z,35.17
2022-08-03T06:33:18.164Z,35.19
2022-08-03T06:36:08.774Z,35.13
2022-08-03T06:39:06.368Z,35.08
2022-08-03T06:41:58.316Z,35.02
2022-08-03T06:44:47.706Z,35.00
2022-08-03T06:47:39.040Z,35.01
2022-08-03T06:50:37.815Z,34.94
2022-08-03T06:53:28.319Z,35.00
2022-08-03T06:56:19.025Z,34.90
2022-08-03T07:00:09.005Z,35.04
2022-08-03T07:02:24.777Z,35.02
2022-08-03T07:05:18.475Z,35.05
2022-08-03T07:08:09.174Z,34.99
2022-08-03T07:11:00.539Z,35.06
2022-08-03T07:13:51.307Z,35.08
2022-08-03T07:16:42.713Z,35.16
2022-08-03T07:19:32.423Z,35.27
2022-08-03T07:22:25.549Z,35.36
2022-08-03T07:25:15.275Z,35.43
2022-08-03T07:28:06.016Z,35.46
2022-08-03T07:30:55.447Z,35.53
2022-08-03T07:33:45.557Z,35.55
2022-08-03T07:36:35.882Z,35.57
2022-08-03T07:39:25.354Z,35.56
2022-08-03T07:42:18.007Z,35.57
2022-08-03T07:45:09.578Z,35.62
2022-08-03T07:48:11.782Z,35.89
2022-08-03T07:51:02.754Z,35.88
2022-08-03T07:53:52.992Z,35.87
2022-08-03T07:56:43.449Z,35.98
2022-08-03T07:59:56.627Z,36.17
2022-08-03T08:02:45.357Z,36.04
2022-08-03T08:05:35.638Z,35.98
2022-08-03T08:08:26.228Z,35.93
2022-08-03T08:11:19.207Z,35.86
2022-08-03T08:14:09.557Z,35.86
2022-08-03T08:17:02.323Z,35.89
2022-08-03T08:19:53.644Z,35.79
2022-08-03T08:22:43.811Z,35.67
2022-08-03T08:25:34.485Z,35.45
2022-08-03T08:28:32.808Z,35.51
2022-08-03T08:31:23.390Z,35.37
2022-08-03T08:34:13.785Z,35.20
2022-08-03T08:37:04.055Z,35.08
2022-08-03T08:39:53.825Z,34.97
2022-08-03T08:42:56.538Z,34.89
2022-08-03T08:45:51.797Z,34.84
2022-08-03T08:48:46.253Z,34.77
2022-08-03T08:51:50.938Z,34.72
2022-08-03T08:54:50.637Z,34.68
2022-08-03T08:57:44.580Z,34.59
2022-08-03T09:00:34.341Z,34.61
2022-08-03T09:03:29.648Z,34.55
2022-08-03T09:06:21.274Z,34.48
2022-08-03T09:09:11.190Z,34.47
2022-08-03T09:12:41.126Z,34.43
2022-08-03T09:15:33.199Z,34.40
2022-08-03T09:18:34.631Z,34.42
2022-08-03T09:21:31.720Z,34.37
2022-08-03T09:24:40.833Z,34.33
2022-08-03T09:27:31.819Z,34.27
2022-08-03T09:30:34.447Z,34.24
2022-08-03T09:33:25.226Z,34.20
2022-08-03T09:36:39.529Z,34.19
2022-08-03T09:39:42.178Z,34.11
2022-08-03T09:42:32.951Z,34.09
2022-08-03T09:45:29.683Z,34.06
2022-08-03T09:48:26.680Z,34.00
2022-08-03T09:51:33.231Z,33.93
2022-08-03T09:54:34.098Z,33.89
2022-08-03T09:57:27.477Z,33.88
2022-08-03T10:00:18.821Z,33.82
2022-08-03T10:03:08.561Z,33.74
2022-08-03T10:05:59.926Z,33.71
2022-08-03T10:09:08.341Z,33.68
2022-08-03T10:11:58.860Z,33.66
2022-08-03T10:14:48.589Z,33.56
2022-08-03T10:17:40.373Z,33.52
2022-08-03T10:20:30.787Z,33.55
2022-08-03T10:23:21.796Z,33.59
2022-08-03T10:26:15.689Z,33.57
2022-08-03T10:29:12.368Z,33.50
2022-08-03T10:32:03.679Z,33.41
2022-08-03T10:35:00.118Z,33.37
2022-08-03T10:38:14.484Z,33.33
2022-08-03T10:41:04.914Z,33.26
2022-08-03T10:44:22.890Z,33.31
2022-08-03T10:47:12.912Z,33.28
2022-08-03T10:50:02.902Z,33.26
2022-08-03T10:53:03.959Z,33.24
2022-08-03T10:56:13.116Z,33.22
2022-08-03T10:59:07.065Z,33.16
2022-08-03T11:02:00.974Z,33.13
2022-08-03T11:05:31.038Z,33.15
2022-08-03T11:08:38.562Z,33.08
2022-08-03T11:11:30.042Z,33.05
2022-08-03T11:14:20.258Z,33.03
2022-08-03T11:17:15.181Z,32.99
2022-08-03T11:20:06.823Z,32.91
2022-08-03T11:23:00.933Z,32.89
2022-08-03T11:26:12.362Z,32.77
2022-08-03T11:29:31.982Z,32.75
2022-08-03T11:32:49.148Z,32.65
2022-08-03T11:36:02.853Z,32.54
2022-08-03T11:39:18.451Z,32.51
2022-08-03T11:42:26.990Z,32.47
2022-08-03T11:45:21.243Z,32.42
2022-08-03T11:48:18.501Z,32.39
2022-08-03T11:51:10.146Z,32.35
2022-08-03T11:54:05.625Z,32.34
2022-08-03T11:56:55.375Z,32.28
2022-08-03T11:59:44.934Z,32.28
2022-08-03T12:02:36.101Z,32.23
2022-08-03T12:05:51.732Z,32.28
2022-08-03T12:08:43.305Z,32.19
2022-08-03T12:11:33.364Z,32.22
2022-08-03T12:14:49.545Z,32.19
2022-08-03T12:17:36.851Z,32.14
2022-08-03T12:20:35.294Z,32.31
2022-08-03T12:23:25.325Z,32.39
2022-08-03T12:26:14.712Z,32.44
2022-08-03T12:29:05.071Z,32.48
2022-08-03T12:31:56.045Z,32.48
2022-08-03T12:34:51.225Z,32.49
2022-08-03T12:37:41.048Z,32.39
2022-08-03T12:40:31.961Z,32.38
2022-08-03T12:43:24.733Z,32.37
2022-08-03T12:46:17.676Z,32.46
2022-08-03T12:49:07.462Z,32.34
2022-08-03T12:52:02.696Z,32.30
2022-08-03T12:55:02.401Z,32.31
2022-08-03T12:57:52.601Z,32.31
2022-08-03T13:00:42.446Z,32.30
2022-08-03T13:03:42.920Z,32.25
2022-08-03T13:06:32.874Z,32.24
2022-08-03T13:09:22.652Z,32.20
2022-08-03T13:12:17.060Z,32.14
2022-08-03T13:15:06.659Z,32.17
2022-08-03T13:17:59.939Z,32.14
2022-08-03T13:20:49.684Z,32.20
2022-08-03T13:23:39.486Z,32.18
2022-08-03T13:26:34.380Z,32.13
2022-08-03T13:29:24.118Z,32.16
2022-08-03T13:32:13.930Z,32.14
2022-08-03T13:35:06.875Z,32.13
2022-08-03T13:37:57.172Z,32.17
2022-08-03T13:40:47.242Z,32.15
2022-08-03T13:43:40.391Z,32.11
2022-08-03T13:46:30.909Z,32.13
2022-08-03T13:49:21.028Z,32.17
2022-08-03T13:52:10.818Z,32.16
2022-08-03T13:55:01.270Z,32.12
2022-08-03T13:58:03.795Z,32.08
2022-08-03T14:00:56.232Z,32.13
2022-08-03T14:03:47.815Z,32.11
2022-08-03T14:06:37.550Z,32.09
2022-08-03T14:09:28.172Z,32.09
2022-08-03T14:12:18.887Z,32.09
2022-08-03T14:15:11.389Z,32.13
2022-08-03T14:18:03.863Z,32.05
2022-08-03T14:20:56.332Z,32.06
2022-08-03T14:23:47.298Z,32.05
2022-08-03T14:26:36.416Z,32.04
2022-08-03T14:29:25.694Z,32.09
2022-08-03T14:32:15.175Z,32.04
2022-08-03T14:35:05.354Z,31.98
2022-08-03T14:37:54.689Z,32.02
2022-08-03T14:40:44.824Z,32.00
2022-08-03T14:43:36.006Z,31.98
2022-08-03T14:46:26.322Z,31.94
2022-08-03T14:50:30.260Z,31.92
2022-08-03T14:52:27.674Z,31.96
2022-08-03T14:55:17.082Z,32.00
2022-08-03T14:58:19.647Z,31.99
2022-08-03T15:02:03.397Z,32.01
2022-08-03T15:04:21.214Z,31.98
2022-08-03T15:07:11.333Z,32.00
2022-08-03T15:10:02.442Z,31.99
2022-08-03T15:12:51.877Z,32.01
2022-08-03T15:15:42.990Z,31.95
2022-08-03T15:18:34.994Z,31.94
2022-08-03T15:21:46.028Z,31.91
2022-08-03T15:24:36.112Z,31.95
2022-08-03T15:27:26.066Z,31.92
2022-08-03T15:30:15.683Z,31.93
2022-08-03T15:33:05.902Z,31.91
2022-08-03T15:35:55.543Z,31.94
2022-08-03T15:38:45.885Z,31.90
2022-08-03T15:41:35.774Z,31.89
2022-08-03T15:44:26.121Z,31.88
2022-08-03T15:47:18.857Z,31.87
2022-08-03T15:50:09.900Z,31.87
2022-08-03T15:53:00.495Z,31.84
2022-08-03T15:55:53.020Z,31.86
2022-08-03T15:59:04.578Z,31.84
2022-08-03T16:01:58.155Z,31.83
2022-08-03T16:04:48.765Z,31.78
2022-08-03T16:08:03.100Z,31.77
2022-08-03T16:10:53.251Z,31.74
2022-08-03T16:14:11.896Z,31.67
2022-08-03T16:16:57.171Z,31.70
2022-08-03T16:19:46.736Z,31.69
2022-08-03T16:22:36.950Z,31.65
2022-08-03T16:25:26.992Z,31.63
2022-08-03T16:28:16.951Z,31.64
2022-08-03T16:31:07.922Z,31.64
2022-08-03T16:33:57.384Z,31.61
2022-08-03T16:36:50.360Z,31.60
2022-08-03T16:39:40.370Z,31.63
2022-08-03T16:42:35.246Z,31.60
2022-08-03T16:45:25.560Z,31.59
2022-08-03T16:48:16.544Z,31.58
2022-08-03T16:51:06.529Z,31.58
2022-08-03T16:54:08.001Z,31.56
2022-08-03T16:57:02.559Z,31.52
2022-08-03T16:59:51.934Z,31.56
2022-08-03T17:02:48.151Z,31.56
2022-08-03T17:05:47.038Z,31.54
2022-08-03T17:08:37.029Z,31.53
2022-08-03T17:11:33.043Z,31.53
2022-08-03T17:14:28.258Z,31.41
2022-08-03T17:17:25.524Z,31.33
2022-08-03T17:20:16.686Z,31.29
2022-08-03T17:23:34.288Z,31.24
2022-08-03T17:26:30.270Z,31.15
2022-08-03T17:29:26.324Z,31.12
2022-08-03T17:32:22.180Z,31.04
2022-08-03T17:35:14.200Z,31.00
2022-08-03T17:38:06.562Z,31.00
2022-08-03T17:40:59.028Z,30.99
2022-08-03T17:44:15.244Z,30.99
2022-08-03T17:47:01.575Z,30.97
2022-08-03T17:49:51.389Z,30.97
2022-08-03T17:52:48.249Z,30.96
2022-08-03T17:55:55.170Z,30.90
2022-08-03T17:59:08.472Z,30.95
2022-08-03T18:02:29.957Z,30.88
2022-08-03T18:05:22.884Z,30.90
2022-08-03T18:08:35.418Z,30.87
2022-08-03T18:11:37.234Z,30.88
2022-08-03T18:14:57.903Z,30.89
2022-08-03T18:18:02.181Z,30.86
2022-08-03T18:20:52.333Z,30.82
2022-08-03T18:23:42.133Z,30.82
2022-08-03T18:26:32.531Z,30.82
2022-08-03T18:29:24.134Z,30.79
2022-08-03T18:32:16.862Z,30.77
2022-08-03T18:35:08.221Z,30.78
2022-08-03T18:38:04.942Z,30.76
2022-08-03T18:40:59.942Z,30.75
2022-08-03T18:44:06.589Z,30.74
2022-08-03T18:47:16.310Z,30.73
2022-08-03T18:50:50.028Z,30.75
2022-08-03T18:54:03.579Z,30.67
2022-08-03T18:56:56.541Z,30.66
2022-08-03T18:59:56.360Z,30.63
2022-08-03T19:02:51.264Z,30.60
2022-08-03T19:06:14.579Z,30.63
2022-08-03T19:09:21.455Z,30.56
2022-08-03T19:12:33.875Z,30.56
2022-08-03T19:15:37.054Z,30.53
2022-08-03T19:18:34.577Z,30.53
2022-08-03T19:21:24.433Z,30.49
2022-08-03T19:24:15.492Z,30.48
2022-08-03T19:27:06.830Z,30.47
2022-08-03T19:30:08.214Z,30.45
2022-08-03T19:33:05.308Z,30.43
2022-08-03T19:35:57.092Z,30.40
2022-08-03T19:38:47.822Z,30.39
2022-08-03T19:41:41.621Z,30.39
2022-08-03T19:44:33.742Z,30.34
2022-08-03T19:47:30.729Z,30.35
2022-08-03T19:50:22.043Z,30.33
2022-08-03T19:53:12.777Z,30.32
2022-08-03T19:56:07.989Z,30.27
2022-08-03T19:58:59.879Z,30.26
2022-08-03T20:05:00.509Z,30.25
2022-08-03T20:07:52.175Z,30.24
2022-08-03T20:10:41.646Z,30.23
2022-08-03T20:13:39.015Z,30.19
2022-08-03T20:16:29.004Z,30.16
2022-08-03T20:19:20.011Z,30.14
2022-08-03T20:22:14.493Z,30.11
2022-08-03T20:25:10.574Z,30.09
2022-08-03T20:28:13.590Z,30.09
2022-08-03T20:31:04.483Z,30.08
2022-08-03T20:33:56.525Z,30.03
2022-08-03T20:36:47.315Z,30.00
2022-08-03T20:39:37.515Z,29.98
2022-08-03T20:42:29.963Z,29.97
2022-08-03T20:45:59.918Z,29.96
2022-08-03T20:48:32.545Z,29.95
2022-08-03T20:51:50.030Z,29.95
2022-08-03T20:54:32.503Z,29.95
2022-08-03T20:57:22.203Z,29.93
2022-08-03T21:00:14.323Z,29.91
2022-08-03T21:03:04.300Z,29.90
2022-08-03T21:05:55.533Z,29.86
2022-08-03T21:08:46.867Z,29.84
2022-08-03T21:11:51.009Z,29.83
2022-08-03T21:13:09.393Z,30.25
2022-08-03T21:15:03.723Z,29.79
2022-08-03T21:17:56.968Z,29.80
2022-08-03T21:20:48.432Z,29.77
2022-08-03T21:23:48.960Z,29.74
2022-08-03T21:26:41.293Z,29.72
2022-08-03T21:29:31.240Z,29.72
2022-08-03T21:32:32.809Z,29.73
2022-08-03T21:35:24.504Z,29.72
2022-08-03T21:38:29.461Z,29.71
2022-08-03T21:41:20.467Z,29.69
2022-08-03T21:44:10.424Z,29.69
2022-08-03T21:47:01.353Z,29.65
2022-08-03T21:50:08.385Z,29.65
2022-08-03T21:52:58.964Z,29.65
2022-08-03T21:56:06.109Z,29.62
2022-08-03T21:58:58.068Z,29.62
2022-08-03T22:01:51.563Z,29.60
2022-08-03T22:04:55.240Z,29.59
2022-08-03T22:07:46.135Z,29.58
2022-08-03T22:10:36.367Z,29.58
2022-08-03T22:13:43.793Z,29.58
2022-08-03T22:16:37.444Z,29.57
2022-08-03T22:19:27.432Z,29.61
2022-08-03T22:22:20.530Z,29.61
2022-08-03T22:25:13.964Z,29.58
2022-08-03T22:28:11.156Z,29.59
2022-08-03T22:31:57.639Z,29.55
2022-08-03T22:34:10.964Z,29.57
2022-08-03T22:37:05.263Z,29.57
2022-08-03T22:39:55.371Z,29.57
2022-08-03T22:42:47.296Z,29.59
2022-08-03T22:45:45.832Z,29.58
2022-08-03T22:48:48.741Z,29.57
2022-08-03T22:51:38.364Z,29.57
2022-08-03T22:54:30.155Z,29.58
2022-08-03T22:57:21.754Z,29.59
2022-08-03T23:00:14.552Z,29.59
2022-08-03T23:03:04.838Z,29.62
2022-08-03T23:06:00.477Z,29.60
2022-08-03T23:08:53.684Z,29.60
2022-08-03T23:11:47.605Z,29.65
2022-08-03T23:14:41.043Z,29.65
2022-08-03T23:17:33.168Z,29.65
2022-08-03T23:20:26.624Z,29.66
2022-08-03T23:23:16.609Z,29.68
2022-08-03T23:26:10.272Z,29.67
2022-08-03T23:29:04.971Z,29.73
2022-08-03T23:31:56.431Z,29.73
2022-08-03T23:35:06.211Z,29.75
2022-08-03T23:38:21.571Z,29.78
2022-08-03T23:41:10.257Z,29.83
2022-08-03T23:44:01.670Z,29.85
2022-08-03T23:46:53.740Z,29.89
2022-08-03T23:49:43.398Z,29.97
2022-08-03T23:52:47.768Z,30.00
2022-08-03T23:55:53.584Z,30.07
2022-08-03T23:59:01.488Z,30.09
